sensor_id;sensor_type;location;lat;lon;timestamp;temperature;humidity
7384;DHT22;3733;47.994;8.820;2023-06-26T00:01:58;17.20;65.20
7384;DHT22;3733;47.994;8.820;2023-06-26T00:04:23;17.20;65.30
7384;DHT22;3733;47.994;8.820;2023-06-26T00:06:49;17.10;65.30
7384;DHT22;3733;47.994;8.820;2023-06-26T00:09:15;17.10;65.60
7384;DHT22;3733;47.994;8.820;2023-06-26T00:11:40;17.10;65.70
7384;DHT22;3733;47.994;8.820;2023-06-26T00:14:06;17.10;66.40
7384;DHT22;3733;47.994;8.820;2023-06-26T00:16:31;17.00;66.60
7384;DHT22;3733;47.994;8.820;2023-06-26T00:18:57;17.00;67.00
7384;DHT22;3733;47.994;8.820;2023-06-26T00:21:24;17.00;67.40
7384;DHT22;3733;47.994;8.820;2023-06-26T00:23:51;16.90;67.40
7384;DHT22;3733;47.994;8.820;2023-06-26T00:26:17;16.90;67.80
7384;DHT22;3733;47.994;8.820;2023-06-26T00:28:42;16.90;68.30
7384;DHT22;3733;47.994;8.820;2023-06-26T00:31:08;16.80;68.50
7384;DHT22;3733;47.994;8.820;2023-06-26T00:33:33;16.80;69.10
7384;DHT22;3733;47.994;8.820;2023-06-26T00:35:59;16.80;69.00
7384;DHT22;3733;47.994;8.820;2023-06-26T00:38:25;16.70;69.50
7384;DHT22;3733;47.994;8.820;2023-06-26T00:40:50;16.70;70.10
7384;DHT22;3733;47.994;8.820;2023-06-26T00:43:16;16.70;70.60
7384;DHT22;3733;47.994;8.820;2023-06-26T00:45:42;16.60;70.70
7384;DHT22;3733;47.994;8.820;2023-06-26T00:48:09;16.60;71.30
7384;DHT22;3733;47.994;8.820;2023-06-26T00:50:37;16.60;71.70
7384;DHT22;3733;47.994;8.820;2023-06-26T00:53:03;16.50;72.00
7384;DHT22;3733;47.994;8.820;2023-06-26T00:55:29;16.50;71.60
7384;DHT22;3733;47.994;8.820;2023-06-26T00:57:55;16.50;72.50
7384;DHT22;3733;47.994;8.820;2023-06-26T01:00:21;16.50;72.50
7384;DHT22;3733;47.994;8.820;2023-06-26T01:02:47;16.40;72.50
7384;DHT22;3733;47.994;8.820;2023-06-26T01:05:13;16.40;73.10
7384;DHT22;3733;47.994;8.820;2023-06-26T01:07:47;16.40;73.60
7384;DHT22;3733;47.994;8.820;2023-06-26T01:10:13;16.30;73.70
7384;DHT22;3733;47.994;8.820;2023-06-26T01:12:39;16.30;74.20
7384;DHT22;3733;47.994;8.820;2023-06-26T01:15:05;16.30;75.10
7384;DHT22;3733;47.994;8.820;2023-06-26T01:17:32;16.20;75.60
7384;DHT22;3733;47.994;8.820;2023-06-26T01:20:03;16.20;76.20
7384;DHT22;3733;47.994;8.820;2023-06-26T01:25:29;16.10;76.70
7384;DHT22;3733;47.994;8.820;2023-06-26T01:28:05;16.10;77.10
7384;DHT22;3733;47.994;8.820;2023-06-26T01:30:32;16.10;77.50
7384;DHT22;3733;47.994;8.820;2023-06-26T01:33:00;16.10;78.00
7384;DHT22;3733;47.994;8.820;2023-06-26T01:35:27;16.00;78.10
7384;DHT22;3733;47.994;8.820;2023-06-26T01:37:52;16.00;79.20
7384;DHT22;3733;47.994;8.820;2023-06-26T01:40:18;15.90;79.80
7384;DHT22;3733;47.994;8.820;2023-06-26T01:42:44;15.90;80.40
7384;DHT22;3733;47.994;8.820;2023-06-26T01:45:24;15.90;80.20
7384;DHT22;3733;47.994;8.820;2023-06-26T01:47:51;15.90;79.90
7384;DHT22;3733;47.994;8.820;2023-06-26T01:50:22;15.90;79.80
7384;DHT22;3733;47.994;8.820;2023-06-26T01:53:17;15.80;80.60
7384;DHT22;3733;47.994;8.820;2023-06-26T01:56:03;15.80;81.60
7384;DHT22;3733;47.994;8.820;2023-06-26T01:58:29;15.80;81.90
7384;DHT22;3733;47.994;8.820;2023-06-26T02:00:55;15.70;82.30
7384;DHT22;3733;47.994;8.820;2023-06-26T02:03:21;15.70;82.50
7384;DHT22;3733;47.994;8.820;2023-06-26T02:05:50;15.70;82.60
7384;DHT22;3733;47.994;8.820;2023-06-26T02:08:16;15.70;83.10
7384;DHT22;3733;47.994;8.820;2023-06-26T02:10:41;15.70;83.00
7384;DHT22;3733;47.994;8.820;2023-06-26T02:13:07;15.70;83.70
7384;DHT22;3733;47.994;8.820;2023-06-26T02:15:32;15.70;83.50
7384;DHT22;3733;47.994;8.820;2023-06-26T02:17:58;15.60;84.30
7384;DHT22;3733;47.994;8.820;2023-06-26T02:20:24;15.60;85.20
7384;DHT22;3733;47.994;8.820;2023-06-26T02:22:49;15.60;85.60
7384;DHT22;3733;47.994;8.820;2023-06-26T02:25:15;15.50;86.30
7384;DHT22;3733;47.994;8.820;2023-06-26T02:27:41;15.50;87.60
7384;DHT22;3733;47.994;8.820;2023-06-26T02:30:08;15.40;88.70
7384;DHT22;3733;47.994;8.820;2023-06-26T02:32:34;15.40;90.00
7384;DHT22;3733;47.994;8.820;2023-06-26T02:35:00;15.30;90.30
7384;DHT22;3733;47.994;8.820;2023-06-26T02:37:25;15.30;90.30
7384;DHT22;3733;47.994;8.820;2023-06-26T02:39:51;15.30;90.00
7384;DHT22;3733;47.994;8.820;2023-06-26T02:42:17;15.30;90.10
7384;DHT22;3733;47.994;8.820;2023-06-26T02:44:42;15.30;90.50
7384;DHT22;3733;47.994;8.820;2023-06-26T02:47:08;15.30;90.60
7384;DHT22;3733;47.994;8.820;2023-06-26T02:49:33;15.30;90.70
7384;DHT22;3733;47.994;8.820;2023-06-26T02:51:59;15.20;90.80
7384;DHT22;3733;47.994;8.820;2023-06-26T02:54:24;15.20;91.00
7384;DHT22;3733;47.994;8.820;2023-06-26T02:56:50;15.10;90.90
7384;DHT22;3733;47.994;8.820;2023-06-26T02:59:16;15.10;91.10
7384;DHT22;3733;47.994;8.820;2023-06-26T03:01:41;15.10;91.10
7384;DHT22;3733;47.994;8.820;2023-06-26T03:04:07;15.10;91.50
7384;DHT22;3733;47.994;8.820;2023-06-26T03:06:33;15.10;91.60
7384;DHT22;3733;47.994;8.820;2023-06-26T03:08:59;15.00;92.20
7384;DHT22;3733;47.994;8.820;2023-06-26T03:11:24;15.00;92.00
7384;DHT22;3733;47.994;8.820;2023-06-26T03:13:50;15.00;92.20
7384;DHT22;3733;47.994;8.820;2023-06-26T03:16:16;14.90;92.40
7384;DHT22;3733;47.994;8.820;2023-06-26T03:18:41;14.90;92.90
7384;DHT22;3733;47.994;8.820;2023-06-26T03:21:07;14.90;92.90
7384;DHT22;3733;47.994;8.820;2023-06-26T03:23:34;14.90;93.30
7384;DHT22;3733;47.994;8.820;2023-06-26T03:25:59;14.90;93.50
7384;DHT22;3733;47.994;8.820;2023-06-26T03:28:25;14.90;93.90
7384;DHT22;3733;47.994;8.820;2023-06-26T03:30:51;14.80;93.80
7384;DHT22;3733;47.994;8.820;2023-06-26T03:33:16;14.80;93.90
7384;DHT22;3733;47.994;8.820;2023-06-26T03:35:42;14.80;94.20
7384;DHT22;3733;47.994;8.820;2023-06-26T03:38:08;14.70;94.40
7384;DHT22;3733;47.994;8.820;2023-06-26T03:40:33;14.70;94.80
7384;DHT22;3733;47.994;8.820;2023-06-26T03:42:59;14.70;95.30
7384;DHT22;3733;47.994;8.820;2023-06-26T03:45:24;14.60;96.00
7384;DHT22;3733;47.994;8.820;2023-06-26T03:47:50;14.60;96.20
7384;DHT22;3733;47.994;8.820;2023-06-26T03:50:16;14.60;96.10
7384;DHT22;3733;47.994;8.820;2023-06-26T03:52:42;14.70;96.00
7384;DHT22;3733;47.994;8.820;2023-06-26T03:55:08;14.70;96.30
7384;DHT22;3733;47.994;8.820;2023-06-26T03:57:34;14.70;96.40
7384;DHT22;3733;47.994;8.820;2023-06-26T03:59:59;14.70;96.00
7384;DHT22;3733;47.994;8.820;2023-06-26T04:02:25;14.70;96.30
7384;DHT22;3733;47.994;8.820;2023-06-26T04:04:51;14.70;96.50
7384;DHT22;3733;47.994;8.820;2023-06-26T04:07:18;14.80;96.60
7384;DHT22;3733;47.994;8.820;2023-06-26T04:09:44;14.80;96.70
7384;DHT22;3733;47.994;8.820;2023-06-26T04:12:10;14.80;96.80
7384;DHT22;3733;47.994;8.820;2023-06-26T04:14:36;14.80;96.40
7384;DHT22;3733;47.994;8.820;2023-06-26T04:17:01;14.80;96.20
7384;DHT22;3733;47.994;8.820;2023-06-26T04:19:29;14.80;96.20
7384;DHT22;3733;47.994;8.820;2023-06-26T04:21:55;14.90;96.40
7384;DHT22;3733;47.994;8.820;2023-06-26T04:24:21;14.80;96.20
7384;DHT22;3733;47.994;8.820;2023-06-26T04:26:46;14.90;96.30
7384;DHT22;3733;47.994;8.820;2023-06-26T04:29:12;14.90;96.30
7384;DHT22;3733;47.994;8.820;2023-06-26T04:31:38;14.80;95.70
7384;DHT22;3733;47.994;8.820;2023-06-26T04:34:04;14.80;96.10
7384;DHT22;3733;47.994;8.820;2023-06-26T04:36:30;14.80;96.30
7384;DHT22;3733;47.994;8.820;2023-06-26T04:38:57;14.80;96.40
7384;DHT22;3733;47.994;8.820;2023-06-26T04:41:22;14.80;96.70
7384;DHT22;3733;47.994;8.820;2023-06-26T04:43:48;14.90;97.70
7384;DHT22;3733;47.994;8.820;2023-06-26T04:46:14;14.90;96.20
7384;DHT22;3733;47.994;8.820;2023-06-26T04:48:39;15.00;96.00
7384;DHT22;3733;47.994;8.820;2023-06-26T04:51:05;15.00;95.90
7384;DHT22;3733;47.994;8.820;2023-06-26T04:53:30;15.10;96.30
7384;DHT22;3733;47.994;8.820;2023-06-26T04:55:56;15.20;95.80
7384;DHT22;3733;47.994;8.820;2023-06-26T04:58:22;15.30;94.90
7384;DHT22;3733;47.994;8.820;2023-06-26T05:00:47;15.40;94.50
7384;DHT22;3733;47.994;8.820;2023-06-26T05:03:14;15.40;93.80
7384;DHT22;3733;47.994;8.820;2023-06-26T05:05:42;15.50;94.00
7384;DHT22;3733;47.994;8.820;2023-06-26T05:08:20;15.60;94.00
7384;DHT22;3733;47.994;8.820;2023-06-26T05:10:46;15.60;93.60
7384;DHT22;3733;47.994;8.820;2023-06-26T05:13:12;15.70;93.40
7384;DHT22;3733;47.994;8.820;2023-06-26T05:15:41;15.70;92.40
7384;DHT22;3733;47.994;8.820;2023-06-26T05:18:07;15.80;91.00
7384;DHT22;3733;47.994;8.820;2023-06-26T05:20:34;15.80;90.90
7384;DHT22;3733;47.994;8.820;2023-06-26T05:23:04;15.90;91.30
7384;DHT22;3733;47.994;8.820;2023-06-26T05:25:30;15.90;91.00
7384;DHT22;3733;47.994;8.820;2023-06-26T05:27:57;16.00;91.00
7384;DHT22;3733;47.994;8.820;2023-06-26T05:30:24;16.00;91.70
7384;DHT22;3733;47.994;8.820;2023-06-26T05:32:54;16.10;92.20
7384;DHT22;3733;47.994;8.820;2023-06-26T05:35:23;16.20;91.90
7384;DHT22;3733;47.994;8.820;2023-06-26T05:37:49;16.30;91.40
7384;DHT22;3733;47.994;8.820;2023-06-26T05:40:17;16.30;89.90
7384;DHT22;3733;47.994;8.820;2023-06-26T05:42:43;16.30;90.50
7384;DHT22;3733;47.994;8.820;2023-06-26T05:45:09;16.40;90.50
7384;DHT22;3733;47.994;8.820;2023-06-26T05:47:35;16.50;90.30
7384;DHT22;3733;47.994;8.820;2023-06-26T05:50:01;16.60;90.60
7384;DHT22;3733;47.994;8.820;2023-06-26T05:52:27;16.70;90.40
7384;DHT22;3733;47.994;8.820;2023-06-26T05:54:53;16.80;90.10
7384;DHT22;3733;47.994;8.820;2023-06-26T05:57:20;16.90;89.30
7384;DHT22;3733;47.994;8.820;2023-06-26T05:59:46;17.00;88.90
7384;DHT22;3733;47.994;8.820;2023-06-26T06:02:13;17.10;85.90
7384;DHT22;3733;47.994;8.820;2023-06-26T06:04:39;17.20;86.90
7384;DHT22;3733;47.994;8.820;2023-06-26T06:07:05;17.30;88.30
7384;DHT22;3733;47.994;8.820;2023-06-26T06:09:30;17.40;88.10
7384;DHT22;3733;47.994;8.820;2023-06-26T06:11:56;17.60;87.80
7384;DHT22;3733;47.994;8.820;2023-06-26T06:14:22;17.70;86.30
7384;DHT22;3733;47.994;8.820;2023-06-26T06:16:47;17.90;84.30
7384;DHT22;3733;47.994;8.820;2023-06-26T06:19:13;18.00;81.60
7384;DHT22;3733;47.994;8.820;2023-06-26T06:21:39;18.10;79.10
7384;DHT22;3733;47.994;8.820;2023-06-26T06:24:05;18.20;78.70
7384;DHT22;3733;47.994;8.820;2023-06-26T06:26:32;18.30;79.60
7384;DHT22;3733;47.994;8.820;2023-06-26T06:28:58;18.40;78.60
7384;DHT22;3733;47.994;8.820;2023-06-26T06:31:23;18.50;78.80
7384;DHT22;3733;47.994;8.820;2023-06-26T06:33:49;18.60;79.20
7384;DHT22;3733;47.994;8.820;2023-06-26T06:36:14;18.70;79.10
7384;DHT22;3733;47.994;8.820;2023-06-26T06:38:43;18.80;80.20
7384;DHT22;3733;47.994;8.820;2023-06-26T06:41:09;18.90;79.40
7384;DHT22;3733;47.994;8.820;2023-06-26T06:43:35;19.10;79.10
7384;DHT22;3733;47.994;8.820;2023-06-26T06:46:01;19.20;76.70
7384;DHT22;3733;47.994;8.820;2023-06-26T06:48:27;19.30;74.50
7384;DHT22;3733;47.994;8.820;2023-06-26T06:50:52;19.40;74.00
7384;DHT22;3733;47.994;8.820;2023-06-26T06:53:18;19.50;73.60
7384;DHT22;3733;47.994;8.820;2023-06-26T06:55:46;19.60;72.30
7384;DHT22;3733;47.994;8.820;2023-06-26T06:58:11;19.70;71.40
7384;DHT22;3733;47.994;8.820;2023-06-26T07:00:37;19.80;70.80
7384;DHT22;3733;47.994;8.820;2023-06-26T07:03:03;20.00;70.90
7384;DHT22;3733;47.994;8.820;2023-06-26T07:05:29;20.10;71.20
7384;DHT22;3733;47.994;8.820;2023-06-26T07:07:55;20.20;71.00
7384;DHT22;3733;47.994;8.820;2023-06-26T07:10:21;20.40;70.50
7384;DHT22;3733;47.994;8.820;2023-06-26T07:12:46;20.50;69.70
7384;DHT22;3733;47.994;8.820;2023-06-26T07:15:12;20.60;68.90
7384;DHT22;3733;47.994;8.820;2023-06-26T07:17:38;20.80;69.00
7384;DHT22;3733;47.994;8.820;2023-06-26T07:20:05;20.90;68.50
7384;DHT22;3733;47.994;8.820;2023-06-26T07:22:36;21.00;67.80
7384;DHT22;3733;47.994;8.820;2023-06-26T07:25:02;21.10;67.30
7384;DHT22;3733;47.994;8.820;2023-06-26T07:27:29;21.20;67.20
7384;DHT22;3733;47.994;8.820;2023-06-26T07:29:55;21.40;66.90
7384;DHT22;3733;47.994;8.820;2023-06-26T07:32:20;21.50;66.30
7384;DHT22;3733;47.994;8.820;2023-06-26T07:34:46;21.60;65.60
7384;DHT22;3733;47.994;8.820;2023-06-26T07:37:11;21.80;66.30
7384;DHT22;3733;47.994;8.820;2023-06-26T07:39:37;22.00;65.50
7384;DHT22;3733;47.994;8.820;2023-06-26T07:42:03;22.10;63.50
7384;DHT22;3733;47.994;8.820;2023-06-26T07:44:28;22.30;63.10
7384;DHT22;3733;47.994;8.820;2023-06-26T07:46:54;22.40;62.90
7384;DHT22;3733;47.994;8.820;2023-06-26T07:49:19;22.60;62.60
7384;DHT22;3733;47.994;8.820;2023-06-26T07:51:45;22.70;62.90
7384;DHT22;3733;47.994;8.820;2023-06-26T07:54:11;22.90;62.30
7384;DHT22;3733;47.994;8.820;2023-06-26T07:56:59;23.00;60.30
7384;DHT22;3733;47.994;8.820;2023-06-26T07:59:27;23.20;60.90
7384;DHT22;3733;47.994;8.820;2023-06-26T08:01:53;23.40;59.20
7384;DHT22;3733;47.994;8.820;2023-06-26T08:04:20;23.60;59.10
7384;DHT22;3733;47.994;8.820;2023-06-26T08:06:51;23.80;58.70
7384;DHT22;3733;47.994;8.820;2023-06-26T08:09:17;24.00;57.50
7384;DHT22;3733;47.994;8.820;2023-06-26T08:11:44;24.20;57.30
7384;DHT22;3733;47.994;8.820;2023-06-26T08:14:10;24.50;56.90
7384;DHT22;3733;47.994;8.820;2023-06-26T08:16:40;24.70;55.20
7384;DHT22;3733;47.994;8.820;2023-06-26T08:19:06;24.90;54.80
7384;DHT22;3733;47.994;8.820;2023-06-26T08:21:31;25.00;54.20
7384;DHT22;3733;47.994;8.820;2023-06-26T08:23:57;25.00;52.00
7384;DHT22;3733;47.994;8.820;2023-06-26T08:26:23;25.00;52.30
7384;DHT22;3733;47.994;8.820;2023-06-26T08:28:48;25.10;53.00
7384;DHT22;3733;47.994;8.820;2023-06-26T08:31:14;25.20;52.50
7384;DHT22;3733;47.994;8.820;2023-06-26T08:33:40;25.30;50.40
7384;DHT22;3733;47.994;8.820;2023-06-26T08:36:05;25.30;48.30
7384;DHT22;3733;47.994;8.820;2023-06-26T08:38:31;25.40;47.50
7384;DHT22;3733;47.994;8.820;2023-06-26T08:40:56;25.40;47.90
7384;DHT22;3733;47.994;8.820;2023-06-26T08:43:22;25.50;48.00
7384;DHT22;3733;47.994;8.820;2023-06-26T08:45:48;25.60;47.40
7384;DHT22;3733;47.994;8.820;2023-06-26T08:48:17;25.70;47.70
7384;DHT22;3733;47.994;8.820;2023-06-26T08:50:43;25.70;48.30
7384;DHT22;3733;47.994;8.820;2023-06-26T08:55:49;25.90;46.50
7384;DHT22;3733;47.994;8.820;2023-06-26T08:58:17;25.90;46.70
7384;DHT22;3733;47.994;8.820;2023-06-26T09:00:43;25.90;46.60
7384;DHT22;3733;47.994;8.820;2023-06-26T09:03:09;26.00;46.60
7384;DHT22;3733;47.994;8.820;2023-06-26T09:05:35;26.10;46.60
7384;DHT22;3733;47.994;8.820;2023-06-26T09:08:01;26.10;46.50
7384;DHT22;3733;47.994;8.820;2023-06-26T09:10:27;26.20;46.50
7384;DHT22;3733;47.994;8.820;2023-06-26T09:12:55;26.30;47.10
7384;DHT22;3733;47.994;8.820;2023-06-26T09:15:22;26.30;46.40
7384;DHT22;3733;47.994;8.820;2023-06-26T09:17:48;26.40;46.50
7384;DHT22;3733;47.994;8.820;2023-06-26T09:20:14;26.40;47.40
7384;DHT22;3733;47.994;8.820;2023-06-26T09:22:42;26.50;46.30
7384;DHT22;3733;47.994;8.820;2023-06-26T09:25:08;26.50;45.60
7384;DHT22;3733;47.994;8.820;2023-06-26T09:27:35;26.50;45.20
7384;DHT22;3733;47.994;8.820;2023-06-26T09:30:05;26.60;46.60
7384;DHT22;3733;47.994;8.820;2023-06-26T09:32:37;26.70;46.10
7384;DHT22;3733;47.994;8.820;2023-06-26T09:35:04;26.70;45.20
7384;DHT22;3733;47.994;8.820;2023-06-26T09:37:29;26.80;45.80
7384;DHT22;3733;47.994;8.820;2023-06-26T09:39:55;26.90;45.40
7384;DHT22;3733;47.994;8.820;2023-06-26T09:42:21;27.00;45.40
7384;DHT22;3733;47.994;8.820;2023-06-26T09:44:47;27.20;45.40
7384;DHT22;3733;47.994;8.820;2023-06-26T09:47:16;27.30;46.20
7384;DHT22;3733;47.994;8.820;2023-06-26T09:49:43;27.50;45.60
7384;DHT22;3733;47.994;8.820;2023-06-26T09:52:09;27.60;44.90
7384;DHT22;3733;47.994;8.820;2023-06-26T09:54:35;27.70;44.50
7384;DHT22;3733;47.994;8.820;2023-06-26T09:57:16;27.70;43.90
7384;DHT22;3733;47.994;8.820;2023-06-26T09:59:43;27.60;43.10
7384;DHT22;3733;47.994;8.820;2023-06-26T10:02:12;27.60;43.60
7384;DHT22;3733;47.994;8.820;2023-06-26T10:04:38;27.60;43.80
7384;DHT22;3733;47.994;8.820;2023-06-26T10:07:11;27.80;44.70
7384;DHT22;3733;47.994;8.820;2023-06-26T10:09:41;27.80;44.10
7384;DHT22;3733;47.994;8.820;2023-06-26T10:12:13;27.70;44.40
7384;DHT22;3733;47.994;8.820;2023-06-26T10:14:42;27.60;43.70
7384;DHT22;3733;47.994;8.820;2023-06-26T10:17:10;27.50;43.90
7384;DHT22;3733;47.994;8.820;2023-06-26T10:19:38;27.40;44.20
7384;DHT22;3733;47.994;8.820;2023-06-26T10:22:05;27.50;44.00
7384;DHT22;3733;47.994;8.820;2023-06-26T10:24:33;27.70;44.40
7384;DHT22;3733;47.994;8.820;2023-06-26T10:27:03;27.90;43.60
7384;DHT22;3733;47.994;8.820;2023-06-26T10:29:30;28.20;43.90
7384;DHT22;3733;47.994;8.820;2023-06-26T10:31:58;28.40;42.80
7384;DHT22;3733;47.994;8.820;2023-06-26T10:34:25;28.50;42.20
7384;DHT22;3733;47.994;8.820;2023-06-26T10:37:01;28.50;42.60
7384;DHT22;3733;47.994;8.820;2023-06-26T10:39:27;28.70;42.50
7384;DHT22;3733;47.994;8.820;2023-06-26T10:42:08;28.80;42.10
7384;DHT22;3733;47.994;8.820;2023-06-26T10:44:42;28.90;41.90
7384;DHT22;3733;47.994;8.820;2023-06-26T10:47:08;28.90;42.70
7384;DHT22;3733;47.994;8.820;2023-06-26T10:49:36;28.80;42.60
7384;DHT22;3733;47.994;8.820;2023-06-26T10:52:02;28.60;42.50
7384;DHT22;3733;47.994;8.820;2023-06-26T10:54:34;28.60;41.60
7384;DHT22;3733;47.994;8.820;2023-06-26T10:57:02;28.60;41.90
7384;DHT22;3733;47.994;8.820;2023-06-26T10:59:30;28.80;41.30
7384;DHT22;3733;47.994;8.820;2023-06-26T11:02:05;28.90;41.90
7384;DHT22;3733;47.994;8.820;2023-06-26T11:04:40;28.90;40.80
7384;DHT22;3733;47.994;8.820;2023-06-26T11:07:20;28.70;42.50
7384;DHT22;3733;47.994;8.820;2023-06-26T11:12:43;28.30;42.00
7384;DHT22;3733;47.994;8.820;2023-06-26T11:15:14;28.10;42.30
7384;DHT22;3733;47.994;8.820;2023-06-26T11:17:41;27.90;43.30
7384;DHT22;3733;47.994;8.820;2023-06-26T11:20:12;27.60;43.90
7384;DHT22;3733;47.994;8.820;2023-06-26T11:22:40;27.50;44.90
7384;DHT22;3733;47.994;8.820;2023-06-26T11:25:07;27.20;44.40
7384;DHT22;3733;47.994;8.820;2023-06-26T11:27:42;27.10;44.90
7384;DHT22;3733;47.994;8.820;2023-06-26T11:30:10;27.00;44.50
7384;DHT22;3733;47.994;8.820;2023-06-26T11:32:37;26.90;45.00
7384;DHT22;3733;47.994;8.820;2023-06-26T11:35:03;26.80;45.50
7384;DHT22;3733;47.994;8.820;2023-06-26T11:37:31;26.80;45.90
7384;DHT22;3733;47.994;8.820;2023-06-26T11:39:57;26.80;46.60
7384;DHT22;3733;47.994;8.820;2023-06-26T11:42:23;26.80;47.00
7384;DHT22;3733;47.994;8.820;2023-06-26T11:44:51;26.80;46.70
7384;DHT22;3733;47.994;8.820;2023-06-26T11:47:18;26.70;47.10
7384;DHT22;3733;47.994;8.820;2023-06-26T11:49:48;26.70;47.20
7384;DHT22;3733;47.994;8.820;2023-06-26T11:52:16;26.50;47.60
7384;DHT22;3733;47.994;8.820;2023-06-26T11:54:42;26.50;47.70
7384;DHT22;3733;47.994;8.820;2023-06-26T11:57:08;26.40;48.00
7384;DHT22;3733;47.994;8.820;2023-06-26T11:59:39;26.30;48.60
7384;DHT22;3733;47.994;8.820;2023-06-26T12:02:10;26.30;48.50
7384;DHT22;3733;47.994;8.820;2023-06-26T12:04:37;26.30;48.80
7384;DHT22;3733;47.994;8.820;2023-06-26T12:07:06;26.30;49.30
7384;DHT22;3733;47.994;8.820;2023-06-26T12:09:37;26.30;49.00
7384;DHT22;3733;47.994;8.820;2023-06-26T12:12:04;26.30;49.00
7384;DHT22;3733;47.994;8.820;2023-06-26T12:14:30;26.30;49.20
7384;DHT22;3733;47.994;8.820;2023-06-26T12:17:04;26.40;49.20
7384;DHT22;3733;47.994;8.820;2023-06-26T12:19:30;26.50;49.50
7384;DHT22;3733;47.994;8.820;2023-06-26T12:21:55;26.60;49.30
7384;DHT22;3733;47.994;8.820;2023-06-26T12:24:22;26.70;49.80
7384;DHT22;3733;47.994;8.820;2023-06-26T12:26:53;26.90;50.30
7384;DHT22;3733;47.994;8.820;2023-06-26T12:29:20;26.90;49.70
7384;DHT22;3733;47.994;8.820;2023-06-26T12:31:51;27.00;49.70
7384;DHT22;3733;47.994;8.820;2023-06-26T12:34:19;27.30;50.70
7384;DHT22;3733;47.994;8.820;2023-06-26T12:36:48;27.50;50.20
7384;DHT22;3733;47.994;8.820;2023-06-26T12:39:16;27.70;49.80
7384;DHT22;3733;47.994;8.820;2023-06-26T12:41:51;28.00;46.50
7384;DHT22;3733;47.994;8.820;2023-06-26T12:44:21;28.10;45.30
7384;DHT22;3733;47.994;8.820;2023-06-26T12:47:00;28.10;45.80
7384;DHT22;3733;47.994;8.820;2023-06-26T12:49:34;28.20;46.50
7384;DHT22;3733;47.994;8.820;2023-06-26T12:52:01;28.40;46.30
7384;DHT22;3733;47.994;8.820;2023-06-26T12:54:27;28.80;46.30
7384;DHT22;3733;47.994;8.820;2023-06-26T12:56:53;29.20;43.30
7384;DHT22;3733;47.994;8.820;2023-06-26T12:59:20;29.40;43.10
7384;DHT22;3733;47.994;8.820;2023-06-26T13:01:45;29.70;44.20
7384;DHT22;3733;47.994;8.820;2023-06-26T13:04:11;30.10;42.80
7384;DHT22;3733;47.994;8.820;2023-06-26T13:06:37;30.30;42.20
7384;DHT22;3733;47.994;8.820;2023-06-26T13:09:02;30.40;42.10
7384;DHT22;3733;47.994;8.820;2023-06-26T13:11:32;30.40;42.20
7384;DHT22;3733;47.994;8.820;2023-06-26T13:13:58;30.20;43.10
7384;DHT22;3733;47.994;8.820;2023-06-26T13:16:24;29.80;43.50
7384;DHT22;3733;47.994;8.820;2023-06-26T13:18:50;29.40;44.40
7384;DHT22;3733;47.994;8.820;2023-06-26T13:21:16;29.00;45.10
7384;DHT22;3733;47.994;8.820;2023-06-26T13:23:43;28.70;45.60
7384;DHT22;3733;47.994;8.820;2023-06-26T13:26:10;28.50;45.90
7384;DHT22;3733;47.994;8.820;2023-06-26T13:28:36;28.50;47.30
7384;DHT22;3733;47.994;8.820;2023-06-26T13:31:03;28.80;47.10
7384;DHT22;3733;47.994;8.820;2023-06-26T13:33:29;29.30;46.40
7384;DHT22;3733;47.994;8.820;2023-06-26T13:35:55;29.70;46.20
7384;DHT22;3733;47.994;8.820;2023-06-26T13:38:21;30.00;45.00
7384;DHT22;3733;47.994;8.820;2023-06-26T13:40:54;29.90;44.80
7384;DHT22;3733;47.994;8.820;2023-06-26T13:43:21;30.10;44.40
7384;DHT22;3733;47.994;8.820;2023-06-26T13:45:48;30.40;44.70
7384;DHT22;3733;47.994;8.820;2023-06-26T13:48:13;30.50;43.30
7384;DHT22;3733;47.994;8.820;2023-06-26T13:50:39;30.70;43.30
7384;DHT22;3733;47.994;8.820;2023-06-26T13:53:05;30.90;43.00
7384;DHT22;3733;47.994;8.820;2023-06-26T13:55:31;31.20;42.20
7384;DHT22;3733;47.994;8.820;2023-06-26T13:57:58;31.30;41.80
7384;DHT22;3733;47.994;8.820;2023-06-26T14:00:24;31.20;42.20
7384;DHT22;3733;47.994;8.820;2023-06-26T14:02:51;31.20;42.00
7384;DHT22;3733;47.994;8.820;2023-06-26T14:05:17;31.30;41.90
7384;DHT22;3733;47.994;8.820;2023-06-26T14:07:46;31.50;42.10
7384;DHT22;3733;47.994;8.820;2023-06-26T14:10:12;31.60;40.60
7384;DHT22;3733;47.994;8.820;2023-06-26T14:12:40;31.70;40.50
7384;DHT22;3733;47.994;8.820;2023-06-26T14:15:05;31.60;41.60
7384;DHT22;3733;47.994;8.820;2023-06-26T14:17:31;31.40;40.60
7384;DHT22;3733;47.994;8.820;2023-06-26T14:19:57;31.20;41.20
7384;DHT22;3733;47.994;8.820;2023-06-26T14:22:22;31.00;42.00
7384;DHT22;3733;47.994;8.820;2023-06-26T14:24:49;30.70;41.90
7384;DHT22;3733;47.994;8.820;2023-06-26T14:27:14;30.30;42.40
7384;DHT22;3733;47.994;8.820;2023-06-26T14:29:40;30.20;42.20
7384;DHT22;3733;47.994;8.820;2023-06-26T14:32:06;30.00;42.80
7384;DHT22;3733;47.994;8.820;2023-06-26T14:34:32;29.80;43.30
7384;DHT22;3733;47.994;8.820;2023-06-26T14:36:58;29.70;43.30
7384;DHT22;3733;47.994;8.820;2023-06-26T14:39:24;29.70;44.10
7384;DHT22;3733;47.994;8.820;2023-06-26T14:41:49;29.50;44.20
7384;DHT22;3733;47.994;8.820;2023-06-26T14:44:15;29.40;45.50
7384;DHT22;3733;47.994;8.820;2023-06-26T14:46:41;29.70;45.30
7384;DHT22;3733;47.994;8.820;2023-06-26T14:49:07;30.00;45.20
7384;DHT22;3733;47.994;8.820;2023-06-26T14:51:33;30.30;44.80
7384;DHT22;3733;47.994;8.820;2023-06-26T14:53:59;30.50;44.00
7384;DHT22;3733;47.994;8.820;2023-06-26T14:56:25;30.70;44.40
7384;DHT22;3733;47.994;8.820;2023-06-26T14:58:51;30.80;43.70
7384;DHT22;3733;47.994;8.820;2023-06-26T15:01:20;31.00;43.60
7384;DHT22;3733;47.994;8.820;2023-06-26T15:03:48;31.10;43.80
7384;DHT22;3733;47.994;8.820;2023-06-26T15:06:14;30.90;43.90
7384;DHT22;3733;47.994;8.820;2023-06-26T15:08:40;30.90;44.40
7384;DHT22;3733;47.994;8.820;2023-06-26T15:11:06;30.70;44.80
7384;DHT22;3733;47.994;8.820;2023-06-26T15:13:32;30.50;44.70
7384;DHT22;3733;47.994;8.820;2023-06-26T15:15:57;30.30;45.50
7384;DHT22;3733;47.994;8.820;2023-06-26T15:18:23;30.30;45.20
7384;DHT22;3733;47.994;8.820;2023-06-26T15:20:48;30.30;46.00
7384;DHT22;3733;47.994;8.820;2023-06-26T15:23:14;30.40;45.60
7384;DHT22;3733;47.994;8.820;2023-06-26T15:25:40;30.30;45.80
7384;DHT22;3733;47.994;8.820;2023-06-26T15:28:06;30.20;45.80
7384;DHT22;3733;47.994;8.820;2023-06-26T15:30:32;30.10;45.50
7384;DHT22;3733;47.994;8.820;2023-06-26T15:32:58;29.90;46.00
7384;DHT22;3733;47.994;8.820;2023-06-26T15:35:23;29.90;46.60
7384;DHT22;3733;47.994;8.820;2023-06-26T15:37:49;30.00;46.90
7384;DHT22;3733;47.994;8.820;2023-06-26T15:40:15;30.10;44.70
7384;DHT22;3733;47.994;8.820;2023-06-26T15:42:47;30.20;44.30
7384;DHT22;3733;47.994;8.820;2023-06-26T15:45:14;30.30;43.50
7384;DHT22;3733;47.994;8.820;2023-06-26T15:47:40;30.30;43.60
7384;DHT22;3733;47.994;8.820;2023-06-26T15:50:07;30.30;43.80
7384;DHT22;3733;47.994;8.820;2023-06-26T15:52:33;30.30;44.50
7384;DHT22;3733;47.994;8.820;2023-06-26T15:54:58;30.30;44.50
7384;DHT22;3733;47.994;8.820;2023-06-26T15:57:24;30.20;45.00
7384;DHT22;3733;47.994;8.820;2023-06-26T15:59:50;30.20;44.40
7384;DHT22;3733;47.994;8.820;2023-06-26T16:02:15;30.10;44.10
7384;DHT22;3733;47.994;8.820;2023-06-26T16:04:41;30.10;44.80
7384;DHT22;3733;47.994;8.820;2023-06-26T16:07:07;30.10;44.90
7384;DHT22;3733;47.994;8.820;2023-06-26T16:09:32;30.00;45.00